createdAt,value
2023-05-14T00:02:04.665Z,98101.28
2023-05-14T00:04:31.194Z,98104.22
2023-05-14T00:06:58.860Z,98100.75
2023-05-14T00:09:25.324Z,98105.41
2023-05-14T00:11:52.079Z,98103.59
2023-05-14T00:14:18.598Z,98094.75
2023-05-14T00:16:45.128Z,98096.53
2023-05-14T00:19:11.734Z,98096.81
2023-05-14T00:21:38.306Z,98102.03
2023-05-14T00:24:04.941Z,98104.50
2023-05-14T00:26:31.473Z,98103.66
2023-05-14T00:28:57.992Z,98100.97
2023-05-14T00:31:24.609Z,98104.97
2023-05-14T00:33:51.139Z,98101.75
2023-05-14T00:36:17.619Z,98102.44
2023-05-14T00:38:44.143Z,98104.81
2023-05-14T00:41:10.809Z,98114.34
2023-05-14T00:43:37.374Z,98110.00
2023-05-14T00:46:04.035Z,98109.25
2023-05-14T00:48:30.772Z,98113.31
2023-05-14T00:50:57.454Z,98107.56
2023-05-14T00:53:24.573Z,98093.88
2023-05-14T00:55:51.255Z,98089.50
2023-05-14T00:58:18.611Z,98085.88
2023-05-14T01:00:45.280Z,98073.44
2023-05-14T01:03:12.057Z,98077.88
2023-05-14T01:05:53.861Z,98077.13
2023-05-14T01:08:32.684Z,98071.97
2023-05-14T01:11:08.231Z,98083.38
2023-05-14T01:13:48.813Z,98077.41
2023-05-14T01:16:20.218Z,98080.97
2023-05-14T01:18:50.847Z,98071.53
2023-05-14T01:21:24.878Z,98072.44
2023-05-14T01:23:51.432Z,98070.66
2023-05-14T01:26:18.061Z,98062.03
2023-05-14T01:28:45.402Z,98064.72
2023-05-14T01:31:22.790Z,98062.19
2023-05-14T01:33:49.978Z,98070.91
2023-05-14T01:36:16.912Z,98064.81
2023-05-14T01:38:45.855Z,98069.28
2023-05-14T01:41:14.541Z,98054.41
2023-05-14T01:43:41.469Z,98049.16
2023-05-14T01:46:08.172Z,98058.00
2023-05-14T01:48:34.768Z,98048.53
2023-05-14T01:51:02.353Z,98048.47
2023-05-14T01:53:29.006Z,98045.03
2023-05-14T01:55:55.676Z,98048.44
2023-05-14T01:58:22.267Z,98047.75
2023-05-14T02:00:48.871Z,98050.47
2023-05-14T02:03:15.651Z,98054.81
2023-05-14T02:05:42.227Z,98045.25
2023-05-14T02:08:08.893Z,98039.94
2023-05-14T02:10:35.463Z,98041.56
2023-05-14T02:13:03.937Z,98051.19
2023-05-14T02:15:30.872Z,98054.41
2023-05-14T02:17:57.505Z,98045.63
2023-05-14T02:20:24.604Z,98043.28
2023-05-14T02:22:51.469Z,98040.75
2023-05-14T02:25:18.655Z,98045.91
2023-05-14T02:27:45.943Z,98041.56
2023-05-14T02:30:12.974Z,98046.91
2023-05-14T02:32:39.711Z,98037.38
2023-05-14T02:35:06.965Z,98033.94
2023-05-14T02:37:34.841Z,98040.97
2023-05-14T02:40:01.666Z,98045.34
2023-05-14T02:42:28.335Z,98046.28
2023-05-14T02:44:54.891Z,98054.13
2023-05-14T02:47:21.644Z,98056.63
2023-05-14T02:49:48.341Z,98062.72
2023-05-14T02:52:14.923Z,98057.41
2023-05-14T02:54:41.613Z,98061.78
2023-05-14T02:57:08.135Z,98049.44
2023-05-14T02:59:34.980Z,98060.75
2023-05-14T03:02:02.187Z,98053.78
2023-05-14T03:04:29.284Z,98053.72
2023-05-14T03:06:55.950Z,98056.28
2023-05-14T03:09:22.617Z,98040.44
2023-05-14T03:11:50.124Z,98040.50
2023-05-14T03:14:19.036Z,98043.13
2023-05-14T03:16:46.175Z,98046.44
2023-05-14T03:19:12.818Z,98034.31
2023-05-14T03:21:39.682Z,98048.31
2023-05-14T03:24:06.506Z,98048.25
2023-05-14T03:26:33.101Z,98043.06
2023-05-14T03:28:59.689Z,98036.84
2023-05-14T03:31:26.769Z,98039.44
2023-05-14T03:33:53.568Z,98046.28
2023-05-14T03:36:20.337Z,98045.41
2023-05-14T03:38:46.868Z,98037.47
2023-05-14T03:41:13.496Z,98040.84
2023-05-14T03:43:40.091Z,98046.97
2023-05-14T03:46:06.725Z,98045.06
2023-05-14T03:48:33.322Z,98048.50
2023-05-14T03:50:59.978Z,98045.91
2023-05-14T03:53:26.620Z,98044.88
2023-05-14T03:55:53.278Z,98039.69
2023-05-14T03:58:19.838Z,98051.78
2023-05-14T04:00:46.477Z,98049.91
2023-05-14T04:03:13.180Z,98054.34
2023-05-14T04:05:39.859Z,98057.66
2023-05-14T04:08:06.600Z,98053.88
2023-05-14T04:10:33.338Z,98054.63
2023-05-14T04:13:00.220Z,98053.50
2023-05-14T04:15:27.067Z,98057.44
2023-05-14T04:17:53.668Z,98057.19
2023-05-14T04:20:20.357Z,98054.19
2023-05-14T04:22:46.994Z,98046.13
2023-05-14T04:25:13.716Z,98053.00
2023-05-14T04:27:40.320Z,98050.22
2023-05-14T04:30:08.531Z,98039.66
2023-05-14T04:32:35.545Z,98036.91
2023-05-14T04:35:02.739Z,98043.78
2023-05-14T04:37:29.361Z,98047.13
2023-05-14T04:39:56.001Z,98040.69
2023-05-14T04:42:22.682Z,98039.56
2023-05-14T04:44:49.415Z,98034.03
2023-05-14T04:47:16.208Z,98033.16
2023-05-14T04:49:43.432Z,98034.81
2023-05-14T04:52:10.139Z,98018.84
2023-05-14T04:54:36.840Z,98015.50
2023-05-14T04:57:03.589Z,98024.72
2023-05-14T04:59:30.953Z,98017.28
2023-05-14T05:01:57.699Z,98012.81
2023-05-14T05:04:24.555Z,98007.19
2023-05-14T05:06:51.123Z,98008.34
2023-05-14T05:09:18.373Z,97996.53
2023-05-14T05:11:44.935Z,97998.28
2023-05-14T05:14:11.594Z,98001.66
2023-05-14T05:16:38.265Z,97998.38
2023-05-14T05:19:04.967Z,97989.28
2023-05-14T05:21:31.857Z,97979.28
2023-05-14T05:23:58.502Z,97985.97
2023-05-14T05:26:26.944Z,97985.72
2023-05-14T05:28:53.716Z,97972.72
2023-05-14T05:31:20.824Z,97960.78
2023-05-14T05:33:47.741Z,97965.38
2023-05-14T05:36:14.348Z,97965.75
2023-05-14T05:38:40.893Z,97967.25
2023-05-14T05:41:07.718Z,97964.13
2023-05-14T05:43:34.403Z,97964.81
2023-05-14T05:46:01.053Z,97979.00
2023-05-14T05:48:27.633Z,97981.16
2023-05-14T05:50:54.417Z,97974.16
2023-05-14T05:53:21.026Z,97967.50
2023-05-14T05:55:47.567Z,97976.69
2023-05-14T05:58:15.803Z,97979.94
2023-05-14T06:00:42.232Z,97981.16
2023-05-14T06:03:08.725Z,97976.91
2023-05-14T06:05:35.705Z,97987.34
2023-05-14T06:08:02.439Z,97982.16
2023-05-14T06:10:29.159Z,97977.25
2023-05-14T06:12:55.737Z,97973.25
2023-05-14T06:15:22.643Z,97965.22
2023-05-14T06:17:49.464Z,97962.81
2023-05-14T06:20:15.986Z,97961.69
2023-05-14T06:22:42.626Z,97961.56
2023-05-14T06:25:09.379Z,97954.81
2023-05-14T06:27:35.961Z,97948.44
2023-05-14T06:30:02.683Z,97940.28
2023-05-14T06:32:29.246Z,97935.81
2023-05-14T06:34:55.797Z,97928.84
2023-05-14T06:37:23.717Z,97937.28
2023-05-14T06:39:50.567Z,97932.34
2023-05-14T06:42:17.332Z,97933.44
2023-05-14T06:44:44.033Z,97933.19
2023-05-14T06:47:13.578Z,97937.56
2023-05-14T06:49:40.094Z,97939.03
2023-05-14T06:52:06.964Z,97938.03
2023-05-14T06:54:33.444Z,97935.97
2023-05-14T06:56:59.909Z,97938.34
2023-05-14T06:59:26.429Z,97926.09
2023-05-14T07:01:52.939Z,97916.16
2023-05-14T07:04:19.635Z,97912.22
2023-05-14T07:06:46.208Z,97906.19
2023-05-14T07:09:13.359Z,97897.88
2023-05-14T07:11:39.981Z,97901.06
2023-05-14T07:14:06.446Z,97910.66
2023-05-14T07:16:33.063Z,97897.75
2023-05-14T07:18:59.673Z,97897.47
2023-05-14T07:21:26.241Z,97897.16
2023-05-14T07:23:52.735Z,97892.63
2023-05-14T07:26:19.441Z,97894.16
2023-05-14T07:28:46.161Z,97885.63
2023-05-14T07:31:12.723Z,97879.25
2023-05-14T07:33:39.233Z,97875.19
2023-05-14T07:36:05.960Z,97882.50
2023-05-14T07:38:32.826Z,97884.56
2023-05-14T07:40:59.370Z,97890.84
2023-05-14T07:43:26.002Z,97889.41
2023-05-14T07:45:52.546Z,97883.91
2023-05-14T07:48:19.118Z,97869.16
2023-05-14T07:50:45.712Z,97867.50
2023-05-14T07:53:12.260Z,97871.94
2023-05-14T07:55:38.857Z,97866.47
2023-05-14T07:58:05.355Z,97853.19
2023-05-14T08:00:35.603Z,97854.56
2023-05-14T08:03:02.368Z,97858.84
2023-05-14T08:05:28.950Z,97866.31
2023-05-14T08:07:55.425Z,97863.03
2023-05-14T08:10:22.108Z,97867.00
2023-05-14T08:12:48.678Z,97854.84
2023-05-14T08:15:15.325Z,97859.09
2023-05-14T08:17:41.818Z,97853.63
2023-05-14T08:20:09.111Z,97857.38
2023-05-14T08:22:35.820Z,97859.53
2023-05-14T08:25:05.358Z,97852.91
2023-05-14T08:27:32.310Z,97857.19
2023-05-14T08:30:00.688Z,97859.97
2023-05-14T08:32:27.368Z,97855.78
2023-05-14T08:34:56.177Z,97855.97
2023-05-14T08:37:22.625Z,97849.13
2023-05-14T08:39:49.304Z,97843.28
2023-05-14T08:42:19.528Z,97846.38
2023-05-14T08:44:49.174Z,97846.69
2023-05-14T08:47:16.213Z,97835.03
2023-05-14T08:49:46.216Z,97839.28
2023-05-14T08:52:13.146Z,97822.34
2023-05-14T08:54:42.851Z,97830.91
2023-05-14T08:57:18.748Z,97820.66
2023-05-14T08:59:45.639Z,97827.03
2023-05-14T09:02:15.128Z,97822.66
2023-05-14T09:04:45.022Z,97814.00
2023-05-14T09:07:11.734Z,97805.41
2023-05-14T09:09:51.366Z,97810.09
2023-05-14T09:12:18.003Z,97806.38
2023-05-14T09:14:45.253Z,97808.00
2023-05-14T09:17:12.719Z,97812.97
2023-05-14T09:19:43.641Z,97807.28
2023-05-14T09:22:21.962Z,97797.28
2023-05-14T09:25:01.774Z,97789.72
2023-05-14T09:28:30.621Z,97785.81
2023-05-14T09:31:04.478Z,97772.81
2023-05-14T09:33:31.172Z,97775.59
2023-05-14T09:36:47.892Z,97771.22
2023-05-14T09:39:17.772Z,97768.06
2023-05-14T09:41:44.201Z,97767.78
2023-05-14T09:44:10.905Z,97768.03
2023-05-14T09:46:37.438Z,97762.22
2023-05-14T09:49:03.912Z,97753.44
2023-05-14T09:51:31.747Z,97752.09
2023-05-14T09:53:58.903Z,97743.66
2023-05-14T09:56:26.232Z,97754.13
2023-05-14T09:58:52.898Z,97746.97
2023-05-14T10:01:20.843Z,97742.00
2023-05-14T10:03:47.758Z,97736.06
2023-05-14T10:06:17.146Z,97729.00
2023-05-14T10:08:49.198Z,97726.94
2023-05-14T10:11:25.003Z,97716.91
2023-05-14T10:14:09.792Z,97717.16
2023-05-14T10:16:44.035Z,97730.97
2023-05-14T10:19:11.775Z,97725.34
2023-05-14T10:21:43.833Z,97720.69
2023-05-14T10:24:11.246Z,97716.81
2023-05-14T10:26:40.791Z,97721.69
2023-05-14T10:29:12.466Z,97715.53
2023-05-14T10:31:50.578Z,97720.50
2023-05-14T10:34:44.199Z,97720.56
2023-05-14T10:37:16.377Z,97704.47
2023-05-14T10:40:02.697Z,97700.06
2023-05-14T10:42:35.890Z,97702.66
2023-05-14T10:45:07.684Z,97703.19
2023-05-14T10:47:36.213Z,97697.56
2023-05-14T10:50:06.190Z,97691.28
2023-05-14T10:55:29.810Z,97679.94
2023-05-14T10:57:59.432Z,97682.03
2023-05-14T11:00:27.847Z,97673.47
2023-05-14T11:03:06.845Z,97668.44
2023-05-14T11:05:37.257Z,97670.72
2023-05-14T11:08:08.109Z,97660.94
2023-05-14T11:10:35.652Z,97658.28
2023-05-14T11:13:02.687Z,97653.78
2023-05-14T11:15:29.495Z,97641.69
2023-05-14T11:17:56.577Z,97636.66
2023-05-14T11:20:23.715Z,97640.44
2023-05-14T11:22:53.872Z,97628.81
2023-05-14T11:25:21.892Z,97644.69
2023-05-14T11:27:50.433Z,97644.00
2023-05-14T11:30:18.895Z,97642.25
2023-05-14T11:32:47.613Z,97640.81
2023-05-14T11:35:18.473Z,97628.69
2023-05-14T11:37:51.866Z,97622.13
2023-05-14T11:40:19.224Z,97628.53
2023-05-14T11:42:46.099Z,97628.50
2023-05-14T11:45:14.099Z,97631.50
2023-05-14T11:47:42.060Z,97628.22
2023-05-14T11:50:09.755Z,97622.84
2023-05-14T11:52:41.627Z,97618.41
2023-05-14T11:55:14.600Z,97622.25
2023-05-14T11:57:41.426Z,97618.94
2023-05-14T12:00:09.786Z,97605.53
2023-05-14T12:02:37.524Z,97610.94
2023-05-14T12:05:07.263Z,97618.78
2023-05-14T12:07:33.810Z,97611.00
2023-05-14T12:10:02.176Z,97614.34
2023-05-14T12:12:35.593Z,97620.44
2023-05-14T12:15:02.592Z,97632.06
2023-05-14T12:17:29.311Z,97637.44
2023-05-14T12:19:57.384Z,97636.31
2023-05-14T12:22:24.072Z,97624.72
2023-05-14T12:24:59.321Z,97629.66
2023-05-14T12:27:28.372Z,97632.47
2023-05-14T12:32:41.121Z,97640.66
2023-05-14T12:35:08.917Z,97644.44
2023-05-14T12:37:37.376Z,97646.19
2023-05-14T12:40:09.183Z,97659.63
2023-05-14T12:42:36.502Z,97655.25
2023-05-14T12:45:07.234Z,97649.47
2023-05-14T12:47:34.518Z,97649.44
2023-05-14T12:50:01.435Z,97654.25
2023-05-14T12:52:37.986Z,97642.00
2023-05-14T12:55:07.717Z,97647.78
2023-05-14T12:57:35.645Z,97631.34
2023-05-14T13:00:06.449Z,97634.72
2023-05-14T13:02:33.181Z,97624.13
2023-05-14T13:05:09.268Z,97622.56
2023-05-14T13:07:36.467Z,97632.19
2023-05-14T13:10:05.685Z,97627.25
2023-05-14T13:12:35.826Z,97621.59
2023-05-14T13:15:02.357Z,97633.59
2023-05-14T13:17:29.047Z,97632.19
2023-05-14T13:19:55.803Z,97631.41
2023-05-14T13:22:22.414Z,97634.84
2023-05-14T13:24:48.998Z,97630.31
2023-05-14T13:27:15.756Z,97625.66
2023-05-14T13:29:42.344Z,97619.19
2023-05-14T13:32:09.098Z,97619.31
2023-05-14T13:34:36.332Z,97626.13
2023-05-14T13:37:03.113Z,97623.28
2023-05-14T13:39:29.856Z,97613.25
2023-05-14T13:41:57.101Z,97612.16
2023-05-14T13:44:24.371Z,97591.31
2023-05-14T13:46:51.187Z,97589.38
2023-05-14T13:49:18.022Z,97591.78
2023-05-14T13:51:44.899Z,97589.28
2023-05-14T13:54:11.724Z,97594.69
2023-05-14T13:56:38.492Z,97600.47
2023-05-14T13:59:05.186Z,97607.97
2023-05-14T14:01:32.194Z,97596.09
2023-05-14T14:03:59.031Z,97593.69
2023-05-14T14:06:29.689Z,97593.84
2023-05-14T14:08:56.403Z,97588.47
2023-05-14T14:11:23.198Z,97597.94
2023-05-14T14:13:49.817Z,97592.59
2023-05-14T14:16:16.475Z,97595.53
2023-05-14T14:18:43.499Z,97585.31
2023-05-14T14:21:10.763Z,97575.38
2023-05-14T14:23:40.375Z,97574.88
2023-05-14T14:26:07.057Z,97556.53
2023-05-14T14:28:33.705Z,97539.88
2023-05-14T14:31:00.638Z,97539.56
2023-05-14T14:33:27.393Z,97539.16
2023-05-14T14:35:54.299Z,97543.59
2023-05-14T14:38:20.916Z,97533.94
2023-05-14T14:40:47.615Z,97516.47
2023-05-14T14:43:14.254Z,97515.50
2023-05-14T14:45:40.995Z,97512.09
2023-05-14T14:48:34.074Z,97522.63
2023-05-14T14:51:01.587Z,97523.00
2023-05-14T14:53:28.469Z,97516.44
2023-05-14T14:55:55.762Z,97516.94
2023-05-14T14:58:22.828Z,97514.84
2023-05-14T15:00:54.939Z,97501.69
2023-05-14T15:03:22.839Z,97514.00
2023-05-14T15:05:49.827Z,97520.16
2023-05-14T15:08:16.435Z,97525.28
2023-05-14T15:10:44.671Z,97530.56
2023-05-14T15:13:12.625Z,97533.25
2023-05-14T15:15:39.247Z,97527.69
2023-05-14T15:18:06.174Z,97540.25
2023-05-14T15:20:32.936Z,97541.94
2023-05-14T15:22:59.634Z,97547.78
2023-05-14T15:25:27.058Z,97552.19
2023-05-14T15:27:53.870Z,97556.91
2023-05-14T15:30:20.655Z,97551.88
2023-05-14T15:32:47.269Z,97547.50
2023-05-14T15:35:14.309Z,97542.25
2023-05-14T15:37:43.434Z,97534.97
2023-05-14T15:40:11.084Z,97523.47
2023-05-14T15:42:42.256Z,97520.75
2023-05-14T15:45:10.385Z,97517.78
2023-05-14T15:47:37.246Z,97520.03
2023-05-14T15:50:04.534Z,97522.69
2023-05-14T15:52:31.738Z,97514.00
2023-05-14T15:54:59.609Z,97528.34
2023-05-14T15:57:26.406Z,97532.72
2023-05-14T15:59:53.057Z,97534.91
2023-05-14T16:02:20.043Z,97556.72
2023-05-14T16:04:46.668Z,97550.03
2023-05-14T16:07:13.495Z,97548.84
2023-05-14T16:09:40.142Z,97529.63
2023-05-14T16:12:07.291Z,97515.50
2023-05-14T16:14:35.106Z,97507.44
2023-05-14T16:17:02.156Z,97503.50
2023-05-14T16:19:28.851Z,97513.72
2023-05-14T16:21:55.607Z,97504.09
2023-05-14T16:24:22.236Z,97500.81
2023-05-14T16:26:49.151Z,97500.59
2023-05-14T16:29:15.935Z,97497.69
2023-05-14T16:31:42.729Z,97483.31
2023-05-14T16:34:09.398Z,97477.41
2023-05-14T16:36:36.129Z,97482.06
2023-05-14T16:41:32.370Z,97487.75
2023-05-14T16:43:58.950Z,97471.78
2023-05-14T16:46:25.661Z,97471.88
2023-05-14T16:48:52.442Z,97465.44
2023-05-14T16:51:19.010Z,97469.75
2023-05-14T16:53:46.276Z,97474.75
2023-05-14T16:56:12.930Z,97469.22
2023-05-14T16:58:39.548Z,97476.59
2023-05-14T17:01:09.345Z,97477.75
2023-05-14T17:03:36.421Z,97478.88
2023-05-14T17:06:12.004Z,97490.81
2023-05-14T17:08:38.619Z,97488.38
2023-05-14T17:11:06.061Z,97480.84
2023-05-14T17:13:33.194Z,97488.84
2023-05-14T17:16:02.314Z,97480.56
2023-05-14T17:18:29.151Z,97494.41
2023-05-14T17:20:55.854Z,97491.91
2023-05-14T17:23:22.484Z,97480.22
2023-05-14T17:25:49.106Z,97484.72
2023-05-14T17:28:15.871Z,97485.09
2023-05-14T17:30:42.519Z,97489.16
2023-05-14T17:33:10.717Z,97496.31
2023-05-14T17:35:40.582Z,97495.88
2023-05-14T17:38:10.298Z,97482.00
2023-05-14T17:40:39.586Z,97488.88
2023-05-14T17:43:06.451Z,97487.75
2023-05-14T17:45:42.746Z,97490.34
2023-05-14T17:48:19.527Z,97498.31
2023-05-14T17:50:47.284Z,97498.88
2023-05-14T17:53:14.122Z,97504.91
2023-05-14T17:55:43.576Z,97502.19
2023-05-14T17:58:15.491Z,97517.56
2023-05-14T18:00:42.462Z,97511.66
2023-05-14T18:03:09.440Z,97501.22
2023-05-14T18:05:36.680Z,97511.03
2023-05-14T18:08:03.381Z,97522.78
2023-05-14T18:10:30.095Z,97528.47
2023-05-14T18:12:56.896Z,97523.97
2023-05-14T18:15:25.710Z,97517.28
2023-05-14T18:17:52.901Z,97512.06
2023-05-14T18:20:20.000Z,97515.91
2023-05-14T18:22:46.562Z,97520.41
2023-05-14T18:25:13.684Z,97511.91
2023-05-14T18:27:44.558Z,97514.78
2023-05-14T18:30:12.323Z,97529.50
2023-05-14T18:32:38.953Z,97525.66
2023-05-14T18:35:08.030Z,97524.50
2023-05-14T18:37:35.464Z,97530.34
2023-05-14T18:40:08.025Z,97531.94
2023-05-14T18:42:35.390Z,97527.78
2023-05-14T18:45:02.328Z,97528.28
2023-05-14T18:47:31.267Z,97522.09
2023-05-14T18:50:00.418Z,97527.31
2023-05-14T18:52:29.965Z,97523.00
2023-05-14T18:54:56.606Z,97527.38
2023-05-14T18:57:23.273Z,97521.06
2023-05-14T18:59:51.351Z,97514.38
2023-05-14T19:02:20.230Z,97519.19
2023-05-14T19:07:16.816Z,97525.69
2023-05-14T19:09:43.471Z,97515.41
2023-05-14T19:12:10.103Z,97509.25
2023-05-14T19:14:36.893Z,97518.38
2023-05-14T19:17:03.951Z,97517.72
2023-05-14T19:19:30.854Z,97514.66
2023-05-14T19:21:57.655Z,97510.09
2023-05-14T19:24:24.901Z,97504.97
2023-05-14T19:26:51.558Z,97505.25
2023-05-14T19:29:18.317Z,97503.03
2023-05-14T19:31:45.330Z,97494.84
2023-05-14T19:34:12.048Z,97495.78
2023-05-14T19:36:41.746Z,97495.56
2023-05-14T19:39:15.489Z,97486.94
2023-05-14T19:41:47.283Z,97484.63
2023-05-14T19:44:13.896Z,97478.97
2023-05-14T19:46:44.133Z,97478.63
2023-05-14T19:49:10.888Z,97478.63
2023-05-14T19:51:37.606Z,97476.06
2023-05-14T19:54:04.402Z,97460.09
2023-05-14T19:56:31.158Z,97461.69
2023-05-14T19:58:57.858Z,97449.31
2023-05-14T20:01:25.163Z,97439.31
2023-05-14T20:03:51.762Z,97451.63
2023-05-14T20:06:18.493Z,97444.31
2023-05-14T20:08:47.725Z,97449.19
2023-05-14T20:11:15.694Z,97451.47
2023-05-14T20:13:42.342Z,97440.09
2023-05-14T20:16:08.877Z,97435.06
2023-05-14T20:18:35.480Z,97429.94
2023-05-14T20:21:02.007Z,97426.78
2023-05-14T20:23:28.675Z,97420.75
2023-05-14T20:25:55.738Z,97426.25
2023-05-14T20:28:22.278Z,97421.38
2023-05-14T20:30:49.019Z,97430.59
2023-05-14T20:33:15.892Z,97428.78
2023-05-14T20:35:44.054Z,97428.56
2023-05-14T20:38:12.008Z,97425.53
2023-05-14T20:40:38.614Z,97433.69
2023-05-14T20:43:05.044Z,97432.72
2023-05-14T20:45:31.567Z,97435.78
2023-05-14T20:47:58.079Z,97430.38
2023-05-14T20:50:27.088Z,97419.22
2023-05-14T20:52:53.969Z,97402.50
2023-05-14T20:55:21.795Z,97393.34
2023-05-14T20:57:49.709Z,97397.56
2023-05-14T21:00:16.375Z,97403.22
2023-05-14T21:02:43.013Z,97405.09
2023-05-14T21:05:09.630Z,97401.72
2023-05-14T21:07:36.589Z,97403.03
2023-05-14T21:10:03.753Z,97391.53
2023-05-14T21:12:30.267Z,97393.66
2023-05-14T21:14:56.723Z,97391.38
2023-05-14T21:17:23.241Z,97390.63
2023-05-14T21:19:49.731Z,97386.44
2023-05-14T21:22:16.258Z,97382.28
2023-05-14T21:24:42.734Z,97385.50
2023-05-14T21:27:09.320Z,97385.31
2023-05-14T21:29:35.835Z,97381.59
2023-05-14T21:32:02.495Z,97380.69
2023-05-14T21:34:29.883Z,97381.91
2023-05-14T21:36:58.220Z,97376.66
2023-05-14T21:39:24.689Z,97378.97
2023-05-14T21:41:56.460Z,97380.59
2023-05-14T21:44:22.909Z,97379.63
2023-05-14T21:46:49.597Z,97383.25
2023-05-14T21:49:16.171Z,97385.44
2023-05-14T21:51:42.992Z,97378.50
2023-05-14T21:54:09.781Z,97372.66
2023-05-14T21:56:37.392Z,97376.28
2023-05-14T21:59:03.960Z,97378.16
2023-05-14T22:01:30.536Z,97370.31
2023-05-14T22:03:58.020Z,97371.41
2023-05-14T22:06:24.763Z,97371.03
2023-05-14T22:08:51.284Z,97386.88
2023-05-14T22:11:17.854Z,97377.19
2023-05-14T22:13:44.387Z,97374.22
2023-05-14T22:16:13.804Z,97359.75
2023-05-14T22:18:40.961Z,97348.13
2023-05-14T22:21:07.543Z,97360.13
2023-05-14T22:23:34.300Z,97359.19
2023-05-14T22:26:00.967Z,97356.31
2023-05-14T22:28:27.502Z,97353.00
2023-05-14T22:30:56.597Z,97357.94
2023-05-14T22:33:23.238Z,97359.38
2023-05-14T22:35:49.777Z,97356.13
2023-05-14T22:38:16.310Z,97350.56
2023-05-14T22:40:44.532Z,97349.25
2023-05-14T22:43:11.080Z,97355.28
2023-05-14T22:45:37.637Z,97348.84
2023-05-14T22:48:04.344Z,97361.63
2023-05-14T22:50:30.846Z,97363.34
2023-05-14T22:52:57.326Z,97363.34
2023-05-14T22:55:24.114Z,97367.34
2023-05-14T22:57:50.948Z,97364.50
2023-05-14T23:00:17.526Z,97371.19
2023-05-14T23:02:44.017Z,97368.81
2023-05-14T23:05:10.534Z,97364.75
2023-05-14T23:07:37.094Z,97353.91
2023-05-14T23:10:04.104Z,97356.38
2023-05-14T23:12:30.655Z,97350.91
2023-05-14T23:14:59.135Z,97359.41
2023-05-14T23:17:25.874Z,97348.91
2023-05-14T23:19:52.676Z,97347.19
2023-05-14T23:22:19.290Z,97333.91
2023-05-14T23:24:45.734Z,97339.00
2023-05-14T23:27:12.279Z,97337.19
2023-05-14T23:29:38.851Z,97333.25
2023-05-14T23:32:05.618Z,97323.84
2023-05-14T23:34:32.448Z,97331.13
2023-05-14T23:36:59.037Z,97329.25
2023-05-14T23:39:27.847Z,97328.13
2023-05-14T23:41:54.365Z,97323.44
2023-05-14T23:44:20.846Z,97314.94
2023-05-14T23:46:47.383Z,97316.66
2023-05-14T23:49:13.911Z,97311.47
2023-05-14T23:51:40.418Z,97306.09
2023-05-14T23:54:06.906Z,97299.50
2023-05-14T23:56:33.750Z,97306.06
2023-05-14T23:59:03.782Z,97303.34
